sensor_id;sensor_type;location;lat;lon;timestamp;temperature;humidity
60860;DHT22;46694;54.382;9.708;2024-01-16T00:02:01;-1.80;99.90
60860;DHT22;46694;54.382;9.708;2024-01-16T00:04:27;-1.80;99.90
60860;DHT22;46694;54.382;9.708;2024-01-16T00:06:55;-1.80;99.90
60860;DHT22;46694;54.382;9.708;2024-01-16T00:09:21;-1.80;99.90
60860;DHT22;46694;54.382;9.708;2024-01-16T00:11:47;-1.80;99.90
60860;DHT22;46694;54.382;9.708;2024-01-16T00:14:12;-1.80;99.90
60860;DHT22;46694;54.382;9.708;2024-01-16T00:16:42;-1.80;99.90
60860;DHT22;46694;54.382;9.708;2024-01-16T00:19:12;-1.80;99.90
60860;DHT22;46694;54.382;9.708;2024-01-16T00:21:39;-1.80;99.90
60860;DHT22;46694;54.382;9.708;2024-01-16T00:24:11;-1.80;99.90
60860;DHT22;46694;54.382;9.708;2024-01-16T00:26:37;-1.80;99.90
60860;DHT22;46694;54.382;9.708;2024-01-16T00:29:03;-1.80;99.90
60860;DHT22;46694;54.382;9.708;2024-01-16T00:31:29;-1.80;99.90
60860;DHT22;46694;54.382;9.708;2024-01-16T00:33:55;-1.80;99.90
60860;DHT22;46694;54.382;9.708;2024-01-16T00:36:21;-1.90;99.90
60860;DHT22;46694;54.382;9.708;2024-01-16T00:38:47;-1.80;99.90
60860;DHT22;46694;54.382;9.708;2024-01-16T00:41:13;-1.80;99.90
60860;DHT22;46694;54.382;9.708;2024-01-16T00:43:41;-1.90;99.90
60860;DHT22;46694;54.382;9.708;2024-01-16T00:46:07;-1.80;99.90
60860;DHT22;46694;54.382;9.708;2024-01-16T00:48:33;-1.80;99.90
60860;DHT22;46694;54.382;9.708;2024-01-16T00:50:59;-1.80;99.90
60860;DHT22;46694;54.382;9.708;2024-01-16T00:53:26;-1.80;99.90
60860;DHT22;46694;54.382;9.708;2024-01-16T00:55:53;-1.70;99.90
60860;DHT22;46694;54.382;9.708;2024-01-16T00:58:23;-1.70;99.90
60860;DHT22;46694;54.382;9.708;2024-01-16T01:00:49;-1.70;99.90
60860;DHT22;46694;54.382;9.708;2024-01-16T01:03:15;-1.60;99.90
60860;DHT22;46694;54.382;9.708;2024-01-16T01:05:41;-1.60;99.90
60860;DHT22;46694;54.382;9.708;2024-01-16T01:08:07;-1.60;99.90
60860;DHT22;46694;54.382;9.708;2024-01-16T01:10:33;-1.60;99.90
60860;DHT22;46694;54.382;9.708;2024-01-16T01:12:59;-1.60;99.90
60860;DHT22;46694;54.382;9.708;2024-01-16T01:15:24;-1.60;99.90
60860;DHT22;46694;54.382;9.708;2024-01-16T01:17:51;-1.60;99.90
60860;DHT22;46694;54.382;9.708;2024-01-16T01:20:18;-1.70;99.90
60860;DHT22;46694;54.382;9.708;2024-01-16T01:22:45;-1.80;99.90
60860;DHT22;46694;54.382;9.708;2024-01-16T01:25:11;-1.80;99.90
60860;DHT22;46694;54.382;9.708;2024-01-16T01:27:38;-1.80;99.90
60860;DHT22;46694;54.382;9.708;2024-01-16T01:30:08;-1.80;99.90
60860;DHT22;46694;54.382;9.708;2024-01-16T01:32:38;-1.80;99.90
60860;DHT22;46694;54.382;9.708;2024-01-16T01:35:05;-1.80;99.90
60860;DHT22;46694;54.382;9.708;2024-01-16T01:37:31;-1.90;99.90
60860;DHT22;46694;54.382;9.708;2024-01-16T01:39:57;-1.90;99.90
60860;DHT22;46694;54.382;9.708;2024-01-16T01:42:23;-1.90;99.90
60860;DHT22;46694;54.382;9.708;2024-01-16T01:44:49;-1.90;99.90
60860;DHT22;46694;54.382;9.708;2024-01-16T01:47:15;-1.90;99.90
60860;DHT22;46694;54.382;9.708;2024-01-16T01:49:40;-1.80;99.90
60860;DHT22;46694;54.382;9.708;2024-01-16T01:52:07;-1.80;99.90
60860;DHT22;46694;54.382;9.708;2024-01-16T01:54:35;-1.80;99.90
60860;DHT22;46694;54.382;9.708;2024-01-16T01:57:02;-1.80;99.90
60860;DHT22;46694;54.382;9.708;2024-01-16T01:59:29;-1.80;99.90
60860;DHT22;46694;54.382;9.708;2024-01-16T02:01:56;-1.80;99.90
60860;DHT22;46694;54.382;9.708;2024-01-16T02:04:22;-1.80;99.90
60860;DHT22;46694;54.382;9.708;2024-01-16T02:06:50;-1.80;99.90
60860;DHT22;46694;54.382;9.708;2024-01-16T02:09:31;-1.80;99.90
60860;DHT22;46694;54.382;9.708;2024-01-16T02:11:57;-1.80;99.90
60860;DHT22;46694;54.382;9.708;2024-01-16T02:14:23;-1.90;99.90
60860;DHT22;46694;54.382;9.708;2024-01-16T02:16:49;-1.90;99.90
60860;DHT22;46694;54.382;9.708;2024-01-16T02:19:15;-1.90;99.90
60860;DHT22;46694;54.382;9.708;2024-01-16T02:21:47;-1.90;99.90
60860;DHT22;46694;54.382;9.708;2024-01-16T02:24:15;-2.00;99.90
60860;DHT22;46694;54.382;9.708;2024-01-16T02:26:41;-2.00;99.90
60860;DHT22;46694;54.382;9.708;2024-01-16T02:29:07;-2.00;99.90
60860;DHT22;46694;54.382;9.708;2024-01-16T02:31:33;-2.00;99.90
60860;DHT22;46694;54.382;9.708;2024-01-16T02:34:00;-2.00;99.90
60860;DHT22;46694;54.382;9.708;2024-01-16T02:36:28;-2.10;99.90
60860;DHT22;46694;54.382;9.708;2024-01-16T02:38:54;-2.10;99.90
60860;DHT22;46694;54.382;9.708;2024-01-16T02:41:20;-2.10;99.90
60860;DHT22;46694;54.382;9.708;2024-01-16T02:43:47;-2.10;99.90
60860;DHT22;46694;54.382;9.708;2024-01-16T02:46:13;-2.20;99.90
60860;DHT22;46694;54.382;9.708;2024-01-16T02:48:40;-2.10;99.90
60860;DHT22;46694;54.382;9.708;2024-01-16T02:51:07;-2.20;99.90
60860;DHT22;46694;54.382;9.708;2024-01-16T02:53:34;-2.20;99.90
60860;DHT22;46694;54.382;9.708;2024-01-16T02:55:59;-2.20;99.90
60860;DHT22;46694;54.382;9.708;2024-01-16T02:58:26;-2.20;99.90
60860;DHT22;46694;54.382;9.708;2024-01-16T03:00:53;-2.20;99.90
60860;DHT22;46694;54.382;9.708;2024-01-16T03:03:19;-2.20;99.90
60860;DHT22;46694;54.382;9.708;2024-01-16T03:05:46;-2.20;99.90
60860;DHT22;46694;54.382;9.708;2024-01-16T03:08:12;-2.20;99.90
60860;DHT22;46694;54.382;9.708;2024-01-16T03:10:38;-2.30;99.90
60860;DHT22;46694;54.382;9.708;2024-01-16T03:13:04;-2.20;99.90
60860;DHT22;46694;54.382;9.708;2024-01-16T03:15:30;-2.30;99.90
60860;DHT22;46694;54.382;9.708;2024-01-16T03:17:57;-2.30;99.90
60860;DHT22;46694;54.382;9.708;2024-01-16T03:20:23;-2.30;99.90
60860;DHT22;46694;54.382;9.708;2024-01-16T03:22:49;-2.30;99.90
60860;DHT22;46694;54.382;9.708;2024-01-16T03:25:16;-2.30;99.90
60860;DHT22;46694;54.382;9.708;2024-01-16T03:27:43;-2.30;99.90
60860;DHT22;46694;54.382;9.708;2024-01-16T03:30:10;-2.30;99.90
60860;DHT22;46694;54.382;9.708;2024-01-16T03:32:37;-2.30;99.90
60860;DHT22;46694;54.382;9.708;2024-01-16T03:35:04;-2.30;99.90
60860;DHT22;46694;54.382;9.708;2024-01-16T03:37:31;-2.30;99.90
60860;DHT22;46694;54.382;9.708;2024-01-16T03:39:58;-2.30;99.90
60860;DHT22;46694;54.382;9.708;2024-01-16T03:42:24;-2.30;99.90
60860;DHT22;46694;54.382;9.708;2024-01-16T03:44:49;-2.30;99.90
60860;DHT22;46694;54.382;9.708;2024-01-16T03:47:16;-2.30;99.90
60860;DHT22;46694;54.382;9.708;2024-01-16T03:49:42;-2.40;99.90
60860;DHT22;46694;54.382;9.708;2024-01-16T03:52:08;-2.40;99.90
60860;DHT22;46694;54.382;9.708;2024-01-16T03:54:34;-2.40;99.90
60860;DHT22;46694;54.382;9.708;2024-01-16T03:57:00;-2.40;99.90
60860;DHT22;46694;54.382;9.708;2024-01-16T03:59:26;-2.40;99.90
60860;DHT22;46694;54.382;9.708;2024-01-16T04:01:52;-2.40;99.90
60860;DHT22;46694;54.382;9.708;2024-01-16T04:04:18;-2.40;99.90
60860;DHT22;46694;54.382;9.708;2024-01-16T04:06:46;-2.50;99.90
60860;DHT22;46694;54.382;9.708;2024-01-16T04:09:11;-2.50;99.90
60860;DHT22;46694;54.382;9.708;2024-01-16T04:11:39;-2.60;99.90
60860;DHT22;46694;54.382;9.708;2024-01-16T04:14:05;-2.70;99.90
60860;DHT22;46694;54.382;9.708;2024-01-16T04:16:31;-2.70;99.90
60860;DHT22;46694;54.382;9.708;2024-01-16T04:18:57;-2.70;99.90
60860;DHT22;46694;54.382;9.708;2024-01-16T04:21:22;-2.70;99.90
60860;DHT22;46694;54.382;9.708;2024-01-16T04:23:48;-2.60;99.90
60860;DHT22;46694;54.382;9.708;2024-01-16T04:26:14;-2.60;99.90
60860;DHT22;46694;54.382;9.708;2024-01-16T04:28:40;-2.70;99.90
60860;DHT22;46694;54.382;9.708;2024-01-16T04:31:06;-2.70;99.90
60860;DHT22;46694;54.382;9.708;2024-01-16T04:33:32;-2.80;99.90
60860;DHT22;46694;54.382;9.708;2024-01-16T04:35:58;-2.80;99.90
60860;DHT22;46694;54.382;9.708;2024-01-16T04:38:24;-2.80;99.90
60860;DHT22;46694;54.382;9.708;2024-01-16T04:40:50;-2.80;99.90
60860;DHT22;46694;54.382;9.708;2024-01-16T04:43:16;-2.80;99.90
60860;DHT22;46694;54.382;9.708;2024-01-16T04:45:41;-2.80;99.90
60860;DHT22;46694;54.382;9.708;2024-01-16T04:48:07;-2.80;99.90
60860;DHT22;46694;54.382;9.708;2024-01-16T04:50:34;-2.80;99.90
60860;DHT22;46694;54.382;9.708;2024-01-16T04:53:01;-2.80;99.90
60860;DHT22;46694;54.382;9.708;2024-01-16T04:55:29;-2.80;99.90
60860;DHT22;46694;54.382;9.708;2024-01-16T04:57:55;-2.80;99.90
60860;DHT22;46694;54.382;9.708;2024-01-16T05:00:22;-2.80;99.90
60860;DHT22;46694;54.382;9.708;2024-01-16T05:02:48;-2.80;99.90
60860;DHT22;46694;54.382;9.708;2024-01-16T05:05:14;-2.80;99.90
60860;DHT22;46694;54.382;9.708;2024-01-16T05:07:41;-2.80;99.90
60860;DHT22;46694;54.382;9.708;2024-01-16T05:10:10;-2.80;99.90
60860;DHT22;46694;54.382;9.708;2024-01-16T05:12:42;-2.80;99.90
60860;DHT22;46694;54.382;9.708;2024-01-16T05:15:10;-2.80;99.90
60860;DHT22;46694;54.382;9.708;2024-01-16T05:17:37;-2.80;99.90
60860;DHT22;46694;54.382;9.708;2024-01-16T05:20:04;-2.80;99.90
60860;DHT22;46694;54.382;9.708;2024-01-16T05:22:30;-2.80;99.90
60860;DHT22;46694;54.382;9.708;2024-01-16T05:24:56;-2.80;99.90
60860;DHT22;46694;54.382;9.708;2024-01-16T05:27:22;-2.70;99.90
60860;DHT22;46694;54.382;9.708;2024-01-16T05:29:48;-2.70;99.90
60860;DHT22;46694;54.382;9.708;2024-01-16T05:32:14;-2.70;99.90
60860;DHT22;46694;54.382;9.708;2024-01-16T05:34:41;-2.60;99.90
60860;DHT22;46694;54.382;9.708;2024-01-16T05:37:06;-2.60;99.90
60860;DHT22;46694;54.382;9.708;2024-01-16T05:39:32;-2.60;99.90
60860;DHT22;46694;54.382;9.708;2024-01-16T05:41:58;-2.60;99.90
60860;DHT22;46694;54.382;9.708;2024-01-16T05:44:24;-2.50;99.90
60860;DHT22;46694;54.382;9.708;2024-01-16T05:46:50;-2.50;99.90
60860;DHT22;46694;54.382;9.708;2024-01-16T05:49:16;-2.50;99.90
60860;DHT22;46694;54.382;9.708;2024-01-16T05:51:42;-2.50;99.90
60860;DHT22;46694;54.382;9.708;2024-01-16T05:54:07;-2.50;99.90
60860;DHT22;46694;54.382;9.708;2024-01-16T05:56:33;-2.40;99.90
60860;DHT22;46694;54.382;9.708;2024-01-16T05:58:59;-2.40;99.90
60860;DHT22;46694;54.382;9.708;2024-01-16T06:01:25;-2.40;99.90
60860;DHT22;46694;54.382;9.708;2024-01-16T06:03:52;-2.30;99.90
60860;DHT22;46694;54.382;9.708;2024-01-16T06:06:18;-2.30;99.90
60860;DHT22;46694;54.382;9.708;2024-01-16T06:08:45;-2.30;99.90
60860;DHT22;46694;54.382;9.708;2024-01-16T06:11:10;-2.20;99.90
60860;DHT22;46694;54.382;9.708;2024-01-16T06:13:36;-2.20;99.90
60860;DHT22;46694;54.382;9.708;2024-01-16T06:16:02;-2.20;99.90
60860;DHT22;46694;54.382;9.708;2024-01-16T06:18:28;-2.20;99.90
60860;DHT22;46694;54.382;9.708;2024-01-16T06:20:54;-2.20;99.90
60860;DHT22;46694;54.382;9.708;2024-01-16T06:23:20;-2.20;99.90
60860;DHT22;46694;54.382;9.708;2024-01-16T06:25:46;-2.10;99.90
60860;DHT22;46694;54.382;9.708;2024-01-16T06:28:12;-2.10;99.90
60860;DHT22;46694;54.382;9.708;2024-01-16T06:30:38;-2.10;99.90
60860;DHT22;46694;54.382;9.708;2024-01-16T06:33:04;-2.00;99.90
60860;DHT22;46694;54.382;9.708;2024-01-16T06:35:30;-2.00;99.90
60860;DHT22;46694;54.382;9.708;2024-01-16T06:37:55;-2.00;99.90
60860;DHT22;46694;54.382;9.708;2024-01-16T06:40:21;-1.90;99.90
60860;DHT22;46694;54.382;9.708;2024-01-16T06:42:47;-1.90;99.90
60860;DHT22;46694;54.382;9.708;2024-01-16T06:45:13;-1.90;99.90
60860;DHT22;46694;54.382;9.708;2024-01-16T06:47:40;-1.90;99.90
60860;DHT22;46694;54.382;9.708;2024-01-16T06:50:07;-1.80;99.90
60860;DHT22;46694;54.382;9.708;2024-01-16T06:52:33;-1.80;99.90
60860;DHT22;46694;54.382;9.708;2024-01-16T06:54:59;-1.80;99.90
60860;DHT22;46694;54.382;9.708;2024-01-16T06:57:25;-1.80;99.90
60860;DHT22;46694;54.382;9.708;2024-01-16T06:59:51;-1.70;99.90
60860;DHT22;46694;54.382;9.708;2024-01-16T07:02:16;-1.70;99.90
60860;DHT22;46694;54.382;9.708;2024-01-16T07:04:42;-1.60;99.90
60860;DHT22;46694;54.382;9.708;2024-01-16T07:07:08;-1.60;99.90
60860;DHT22;46694;54.382;9.708;2024-01-16T07:09:34;-1.60;99.90
60860;DHT22;46694;54.382;9.708;2024-01-16T07:11:59;-1.60;99.90
60860;DHT22;46694;54.382;9.708;2024-01-16T07:14:25;-1.60;99.90
60860;DHT22;46694;54.382;9.708;2024-01-16T07:16:51;-1.60;99.90
60860;DHT22;46694;54.382;9.708;2024-01-16T07:19:17;-1.60;99.90
60860;DHT22;46694;54.382;9.708;2024-01-16T07:21:43;-1.60;99.90
60860;DHT22;46694;54.382;9.708;2024-01-16T07:24:10;-1.60;99.90
60860;DHT22;46694;54.382;9.708;2024-01-16T07:26:37;-1.60;99.90
60860;DHT22;46694;54.382;9.708;2024-01-16T07:29:03;-1.50;99.90
60860;DHT22;46694;54.382;9.708;2024-01-16T07:31:29;-1.50;99.90
60860;DHT22;46694;54.382;9.708;2024-01-16T07:33:55;-1.50;99.90
60860;DHT22;46694;54.382;9.708;2024-01-16T07:36:21;-1.40;99.90
60860;DHT22;46694;54.382;9.708;2024-01-16T07:38:46;-1.40;99.90
60860;DHT22;46694;54.382;9.708;2024-01-16T07:41:13;-1.40;99.90
60860;DHT22;46694;54.382;9.708;2024-01-16T07:43:39;-1.40;99.90
60860;DHT22;46694;54.382;9.708;2024-01-16T07:46:05;-1.30;99.90
60860;DHT22;46694;54.382;9.708;2024-01-16T07:48:33;-1.30;99.90
60860;DHT22;46694;54.382;9.708;2024-01-16T07:50:59;-1.30;99.90
60860;DHT22;46694;54.382;9.708;2024-01-16T07:53:25;-1.30;99.90
60860;DHT22;46694;54.382;9.708;2024-01-16T07:55:53;-1.20;99.90
60860;DHT22;46694;54.382;9.708;2024-01-16T07:58:20;-1.20;99.90
60860;DHT22;46694;54.382;9.708;2024-01-16T08:00:46;-1.20;99.90
60860;DHT22;46694;54.382;9.708;2024-01-16T08:03:12;-1.20;99.90
60860;DHT22;46694;54.382;9.708;2024-01-16T08:05:40;-1.10;99.90
60860;DHT22;46694;54.382;9.708;2024-01-16T08:08:08;-1.10;99.90
60860;DHT22;46694;54.382;9.708;2024-01-16T08:10:35;-1.10;99.90
60860;DHT22;46694;54.382;9.708;2024-01-16T08:13:01;-1.10;99.90
60860;DHT22;46694;54.382;9.708;2024-01-16T08:15:26;-1.10;99.90
60860;DHT22;46694;54.382;9.708;2024-01-16T08:17:52;-1.00;99.90
60860;DHT22;46694;54.382;9.708;2024-01-16T08:20:18;-1.00;99.90
60860;DHT22;46694;54.382;9.708;2024-01-16T08:22:44;-1.10;99.90
60860;DHT22;46694;54.382;9.708;2024-01-16T08:25:10;-1.10;99.90
60860;DHT22;46694;54.382;9.708;2024-01-16T08:27:35;-1.00;99.90
60860;DHT22;46694;54.382;9.708;2024-01-16T08:30:04;-1.00;99.90
60860;DHT22;46694;54.382;9.708;2024-01-16T08:32:31;-1.00;99.90
60860;DHT22;46694;54.382;9.708;2024-01-16T08:34:57;-1.00;99.90
60860;DHT22;46694;54.382;9.708;2024-01-16T08:37:23;-0.90;99.90
60860;DHT22;46694;54.382;9.708;2024-01-16T08:39:50;-0.90;99.90
60860;DHT22;46694;54.382;9.708;2024-01-16T08:42:16;-0.90;99.90
60860;DHT22;46694;54.382;9.708;2024-01-16T08:44:43;-0.90;99.90
60860;DHT22;46694;54.382;9.708;2024-01-16T08:47:09;-0.90;99.90
60860;DHT22;46694;54.382;9.708;2024-01-16T08:49:35;-0.90;99.90
60860;DHT22;46694;54.382;9.708;2024-01-16T08:52:03;-0.90;99.90
60860;DHT22;46694;54.382;9.708;2024-01-16T08:54:30;-0.80;99.90
60860;DHT22;46694;54.382;9.708;2024-01-16T08:56:56;-0.70;99.90
60860;DHT22;46694;54.382;9.708;2024-01-16T08:59:22;-0.70;99.90
60860;DHT22;46694;54.382;9.708;2024-01-16T09:01:48;-0.60;99.90
60860;DHT22;46694;54.382;9.708;2024-01-16T09:04:14;-0.60;99.90
60860;DHT22;46694;54.382;9.708;2024-01-16T09:06:39;-0.50;99.90
60860;DHT22;46694;54.382;9.708;2024-01-16T09:09:05;-0.50;99.90
60860;DHT22;46694;54.382;9.708;2024-01-16T09:11:31;-0.40;99.90
60860;DHT22;46694;54.382;9.708;2024-01-16T09:14:22;-0.20;99.90
60860;DHT22;46694;54.382;9.708;2024-01-16T09:16:47;-0.10;99.90
60860;DHT22;46694;54.382;9.708;2024-01-16T09:19:13;-0.10;99.90
60860;DHT22;46694;54.382;9.708;2024-01-16T09:21:39;0.00;99.90
60860;DHT22;46694;54.382;9.708;2024-01-16T09:24:05;0.00;99.90
60860;DHT22;46694;54.382;9.708;2024-01-16T09:26:31;0.00;99.90
60860;DHT22;46694;54.382;9.708;2024-01-16T09:28:57;0.10;99.90
60860;DHT22;46694;54.382;9.708;2024-01-16T09:31:23;0.20;99.90
60860;DHT22;46694;54.382;9.708;2024-01-16T09:33:48;0.20;99.90
60860;DHT22;46694;54.382;9.708;2024-01-16T09:36:14;0.30;99.90
60860;DHT22;46694;54.382;9.708;2024-01-16T09:38:41;0.30;99.90
60860;DHT22;46694;54.382;9.708;2024-01-16T09:41:08;0.30;99.90
60860;DHT22;46694;54.382;9.708;2024-01-16T09:43:34;0.30;99.90
60860;DHT22;46694;54.382;9.708;2024-01-16T09:46:01;0.30;99.90
60860;DHT22;46694;54.382;9.708;2024-01-16T09:48:28;0.40;99.90
60860;DHT22;46694;54.382;9.708;2024-01-16T09:50:56;0.40;99.90
60860;DHT22;46694;54.382;9.708;2024-01-16T09:53:21;0.40;99.90
60860;DHT22;46694;54.382;9.708;2024-01-16T09:55:49;0.50;99.90
60860;DHT22;46694;54.382;9.708;2024-01-16T09:58:18;0.50;99.90
60860;DHT22;46694;54.382;9.708;2024-01-16T10:00:44;0.60;99.90
60860;DHT22;46694;54.382;9.708;2024-01-16T10:03:13;0.60;99.90
60860;DHT22;46694;54.382;9.708;2024-01-16T10:05:43;0.60;99.90
60860;DHT22;46694;54.382;9.708;2024-01-16T10:08:10;0.70;99.90
60860;DHT22;46694;54.382;9.708;2024-01-16T10:10:36;0.70;99.90
60860;DHT22;46694;54.382;9.708;2024-01-16T10:13:03;0.70;99.90
60860;DHT22;46694;54.382;9.708;2024-01-16T10:15:30;0.70;99.90
60860;DHT22;46694;54.382;9.708;2024-01-16T10:17:57;0.80;99.90
60860;DHT22;46694;54.382;9.708;2024-01-16T10:20:34;1.00;99.90
60860;DHT22;46694;54.382;9.708;2024-01-16T10:23:01;1.10;99.90
60860;DHT22;46694;54.382;9.708;2024-01-16T10:25:29;1.20;99.90
60860;DHT22;46694;54.382;9.708;2024-01-16T10:28:05;1.30;99.90
60860;DHT22;46694;54.382;9.708;2024-01-16T10:30:33;1.50;99.90
60860;DHT22;46694;54.382;9.708;2024-01-16T10:33:15;1.60;99.90
60860;DHT22;46694;54.382;9.708;2024-01-16T10:35:47;1.70;99.90
60860;DHT22;46694;54.382;9.708;2024-01-16T10:38:20;1.70;99.90
60860;DHT22;46694;54.382;9.708;2024-01-16T10:40:47;1.70;99.90
60860;DHT22;46694;54.382;9.708;2024-01-16T10:43:17;1.70;99.90
60860;DHT22;46694;54.382;9.708;2024-01-16T10:45:43;1.80;99.90
60860;DHT22;46694;54.382;9.708;2024-01-16T10:48:09;1.80;99.90
60860;DHT22;46694;54.382;9.708;2024-01-16T10:50:36;1.90;99.90
60860;DHT22;46694;54.382;9.708;2024-01-16T10:53:07;1.90;99.90
60860;DHT22;46694;54.382;9.708;2024-01-16T10:55:50;1.90;99.90
60860;DHT22;46694;54.382;9.708;2024-01-16T10:58:22;2.00;99.90
60860;DHT22;46694;54.382;9.708;2024-01-16T11:00:50;2.00;99.90
60860;DHT22;46694;54.382;9.708;2024-01-16T11:03:47;2.00;99.90
60860;DHT22;46694;54.382;9.708;2024-01-16T11:06:15;2.10;99.90
60860;DHT22;46694;54.382;9.708;2024-01-16T11:08:45;2.10;99.90
60860;DHT22;46694;54.382;9.708;2024-01-16T11:11:13;2.10;99.90
60860;DHT22;46694;54.382;9.708;2024-01-16T11:13:39;2.10;99.90
60860;DHT22;46694;54.382;9.708;2024-01-16T11:16:10;2.10;99.90
60860;DHT22;46694;54.382;9.708;2024-01-16T11:18:37;2.20;99.90
60860;DHT22;46694;54.382;9.708;2024-01-16T11:21:14;2.20;99.90
60860;DHT22;46694;54.382;9.708;2024-01-16T11:23:41;2.20;99.90
60860;DHT22;46694;54.382;9.708;2024-01-16T11:26:32;2.40;99.90
60860;DHT22;46694;54.382;9.708;2024-01-16T11:31:55;2.50;99.90
60860;DHT22;46694;54.382;9.708;2024-01-16T11:37:11;2.50;99.90
60860;DHT22;46694;54.382;9.708;2024-01-16T11:39:38;2.50;99.90
60860;DHT22;46694;54.382;9.708;2024-01-16T11:42:04;2.50;99.90
60860;DHT22;46694;54.382;9.708;2024-01-16T11:47:04;2.60;99.90
60860;DHT22;46694;54.382;9.708;2024-01-16T11:49:30;2.50;99.90
60860;DHT22;46694;54.382;9.708;2024-01-16T11:51:57;2.60;99.90
60860;DHT22;46694;54.382;9.708;2024-01-16T11:54:24;2.70;99.90
60860;DHT22;46694;54.382;9.708;2024-01-16T11:57:01;2.70;99.90
60860;DHT22;46694;54.382;9.708;2024-01-16T12:02:49;2.70;99.90
60860;DHT22;46694;54.382;9.708;2024-01-16T12:05:19;2.70;99.90
60860;DHT22;46694;54.382;9.708;2024-01-16T12:07:50;2.70;99.90
60860;DHT22;46694;54.382;9.708;2024-01-16T12:10:22;2.80;99.90
60860;DHT22;46694;54.382;9.708;2024-01-16T12:12:50;2.80;99.90
60860;DHT22;46694;54.382;9.708;2024-01-16T12:15:21;2.90;99.90
60860;DHT22;46694;54.382;9.708;2024-01-16T12:18:01;2.90;99.90
60860;DHT22;46694;54.382;9.708;2024-01-16T12:20:30;2.90;99.90
60860;DHT22;46694;54.382;9.708;2024-01-16T12:22:59;2.90;99.90
60860;DHT22;46694;54.382;9.708;2024-01-16T12:25:27;2.80;99.90
60860;DHT22;46694;54.382;9.708;2024-01-16T12:28:06;2.90;99.90
60860;DHT22;46694;54.382;9.708;2024-01-16T12:34:29;2.80;99.90
60860;DHT22;46694;54.382;9.708;2024-01-16T12:37:04;2.80;99.90
60860;DHT22;46694;54.382;9.708;2024-01-16T12:39:32;2.80;99.90
60860;DHT22;46694;54.382;9.708;2024-01-16T12:42:01;2.80;99.90
60860;DHT22;46694;54.382;9.708;2024-01-16T12:44:28;2.80;99.90
60860;DHT22;46694;54.382;9.708;2024-01-16T12:46:55;2.80;99.90
60860;DHT22;46694;54.382;9.708;2024-01-16T12:49:22;2.80;99.90
60860;DHT22;46694;54.382;9.708;2024-01-16T12:51:49;2.80;99.90
60860;DHT22;46694;54.382;9.708;2024-01-16T12:54:17;2.80;99.90
60860;DHT22;46694;54.382;9.708;2024-01-16T12:56:44;2.80;99.90
60860;DHT22;46694;54.382;9.708;2024-01-16T12:59:14;2.80;99.90
60860;DHT22;46694;54.382;9.708;2024-01-16T13:01:41;2.80;99.90
60860;DHT22;46694;54.382;9.708;2024-01-16T13:04:12;2.80;99.90
60860;DHT22;46694;54.382;9.708;2024-01-16T13:06:40;2.80;99.90
60860;DHT22;46694;54.382;9.708;2024-01-16T13:09:12;2.80;99.90
60860;DHT22;46694;54.382;9.708;2024-01-16T13:14:20;2.70;99.90
60860;DHT22;46694;54.382;9.708;2024-01-16T13:16:50;2.70;99.90
60860;DHT22;46694;54.382;9.708;2024-01-16T13:19:20;2.70;99.90
60860;DHT22;46694;54.382;9.708;2024-01-16T13:21:48;2.70;99.90
60860;DHT22;46694;54.382;9.708;2024-01-16T13:24:14;2.70;99.90
60860;DHT22;46694;54.382;9.708;2024-01-16T13:26:42;2.70;99.90
60860;DHT22;46694;54.382;9.708;2024-01-16T13:29:09;2.60;99.90
60860;DHT22;46694;54.382;9.708;2024-01-16T13:31:35;2.60;99.90
60860;DHT22;46694;54.382;9.708;2024-01-16T13:34:01;2.60;99.90
60860;DHT22;46694;54.382;9.708;2024-01-16T13:36:27;2.50;99.90
60860;DHT22;46694;54.382;9.708;2024-01-16T13:38:53;2.50;99.90
60860;DHT22;46694;54.382;9.708;2024-01-16T13:41:20;2.50;99.90
60860;DHT22;46694;54.382;9.708;2024-01-16T13:43:46;2.50;99.90
60860;DHT22;46694;54.382;9.708;2024-01-16T13:46:15;2.50;99.90
60860;DHT22;46694;54.382;9.708;2024-01-16T13:48:43;2.50;99.90
60860;DHT22;46694;54.382;9.708;2024-01-16T13:51:10;2.50;99.90
60860;DHT22;46694;54.382;9.708;2024-01-16T13:53:37;2.50;99.90
60860;DHT22;46694;54.382;9.708;2024-01-16T13:56:03;2.50;99.90
60860;DHT22;46694;54.382;9.708;2024-01-16T13:58:29;2.50;99.90
60860;DHT22;46694;54.382;9.708;2024-01-16T14:00:55;2.50;99.90
60860;DHT22;46694;54.382;9.708;2024-01-16T14:03:22;2.50;99.90
60860;DHT22;46694;54.382;9.708;2024-01-16T14:05:47;2.50;99.90
60860;DHT22;46694;54.382;9.708;2024-01-16T14:08:13;2.50;99.90
60860;DHT22;46694;54.382;9.708;2024-01-16T14:10:39;2.50;99.90
60860;DHT22;46694;54.382;9.708;2024-01-16T14:13:05;2.40;99.90
60860;DHT22;46694;54.382;9.708;2024-01-16T14:15:31;2.40;99.90
60860;DHT22;46694;54.382;9.708;2024-01-16T14:17:57;2.40;99.90
60860;DHT22;46694;54.382;9.708;2024-01-16T14:20:24;2.30;99.90
60860;DHT22;46694;54.382;9.708;2024-01-16T14:22:54;2.30;99.90
60860;DHT22;46694;54.382;9.708;2024-01-16T14:25:21;2.30;99.90
60860;DHT22;46694;54.382;9.708;2024-01-16T14:28:03;2.30;99.90
60860;DHT22;46694;54.382;9.708;2024-01-16T14:30:31;2.30;99.90
60860;DHT22;46694;54.382;9.708;2024-01-16T14:32:57;2.30;99.90
60860;DHT22;46694;54.382;9.708;2024-01-16T14:35:23;2.30;99.90
60860;DHT22;46694;54.382;9.708;2024-01-16T14:37:52;2.30;99.90
60860;DHT22;46694;54.382;9.708;2024-01-16T14:40:18;2.30;99.90
60860;DHT22;46694;54.382;9.708;2024-01-16T14:42:51;2.30;99.90
60860;DHT22;46694;54.382;9.708;2024-01-16T14:45:25;2.30;99.90
60860;DHT22;46694;54.382;9.708;2024-01-16T14:47:54;2.30;99.90
60860;DHT22;46694;54.382;9.708;2024-01-16T14:50:20;2.30;99.90
60860;DHT22;46694;54.382;9.708;2024-01-16T14:52:48;2.30;99.90
60860;DHT22;46694;54.382;9.708;2024-01-16T14:55:14;2.30;99.90
60860;DHT22;46694;54.382;9.708;2024-01-16T14:57:40;2.20;99.90
60860;DHT22;46694;54.382;9.708;2024-01-16T15:00:13;2.20;99.90
60860;DHT22;46694;54.382;9.708;2024-01-16T15:02:41;2.20;99.90
60860;DHT22;46694;54.382;9.708;2024-01-16T15:05:07;2.10;99.90
60860;DHT22;46694;54.382;9.708;2024-01-16T15:07:34;2.10;99.90
60860;DHT22;46694;54.382;9.708;2024-01-16T15:10:03;2.00;99.90
60860;DHT22;46694;54.382;9.708;2024-01-16T15:12:37;2.00;99.90
60860;DHT22;46694;54.382;9.708;2024-01-16T15:15:10;2.00;99.90
60860;DHT22;46694;54.382;9.708;2024-01-16T15:17:39;2.00;99.90
60860;DHT22;46694;54.382;9.708;2024-01-16T15:20:09;2.00;99.90
60860;DHT22;46694;54.382;9.708;2024-01-16T15:22:43;2.00;99.90
60860;DHT22;46694;54.382;9.708;2024-01-16T15:25:11;1.90;99.90
60860;DHT22;46694;54.382;9.708;2024-01-16T15:27:39;1.90;99.90
60860;DHT22;46694;54.382;9.708;2024-01-16T15:30:05;1.90;99.90
60860;DHT22;46694;54.382;9.708;2024-01-16T15:32:36;1.90;99.90
60860;DHT22;46694;54.382;9.708;2024-01-16T15:35:03;1.90;99.90
60860;DHT22;46694;54.382;9.708;2024-01-16T15:37:35;1.90;99.90
60860;DHT22;46694;54.382;9.708;2024-01-16T15:40:02;1.90;99.90
60860;DHT22;46694;54.382;9.708;2024-01-16T15:42:32;1.90;99.90
60860;DHT22;46694;54.382;9.708;2024-01-16T15:44:58;1.90;99.90
60860;DHT22;46694;54.382;9.708;2024-01-16T15:47:24;1.90;99.90
60860;DHT22;46694;54.382;9.708;2024-01-16T15:49:50;1.90;99.90
60860;DHT22;46694;54.382;9.708;2024-01-16T15:52:16;1.90;99.90
60860;DHT22;46694;54.382;9.708;2024-01-16T15:54:41;1.90;99.90
60860;DHT22;46694;54.382;9.708;2024-01-16T15:57:14;1.90;99.90